Time;durP1;ratioP1;P1;durP2;ratioP2;P2;SDS_P1;SDS_P2;PMS_P1;PMS_P2;Temp;Humidity;BMP_temperature;BMP_pressure;BME280_temperature;BME280_humidity;BME280_pressure;Samples;Min_cycle;Max_cycle;Signal;HPM_P1;HPM_P2
2023/07/06 00:00:40;;;;;;;18.27;15.20;;;;;;;17.98;100.00;96529.53;5090471;28;20036;-88
2023/07/06 00:03:06;;;;;;;16.27;14.55;;;;;;;18.00;100.00;96528.34;5108578;28;20030;-86
2023/07/06 00:05:31;;;;;;;20.83;15.45;;;;;;;17.98;100.00;96519.81;5090702;28;20051;-88
2023/07/06 00:07:57;;;;;;;15.65;13.93;;;;;;;17.96;100.00;96515.75;5089250;28;20043;-88
2023/07/06 00:10:23;;;;;;;20.85;16.65;;;;;;;17.88;100.00;96506.16;5091231;28;20028;-87
2023/07/06 00:12:48;;;;;;;19.20;16.05;;;;;;;17.76;100.00;96482.16;5106344;28;20024;-87
2023/07/06 00:15:14;;;;;;;15.82;14.38;;;;;;;17.78;100.00;96474.16;5091113;28;20028;-87
2023/07/06 00:17:39;;;;;;;17.52;14.48;;;;;;;17.84;100.00;96463.75;5107878;28;20098;-86
2023/07/06 00:20:08;;;;;;;21.58;16.73;;;;;;;17.87;100.00;96483.56;5107157;28;20561;-87
2023/07/06 00:22:36;;;;;;;24.83;18.35;;;;;;;17.75;100.00;96482.34;5107556;28;20407;-86
2023/07/06 00:25:02;;;;;;;21.65;17.33;;;;;;;17.66;100.00;96486.03;5089553;28;20744;-87
2023/07/06 00:27:29;;;;;;;20.75;15.35;;;;;;;17.74;100.00;96499.88;5108991;28;20073;-87
2023/07/06 00:30:07;;;;;;;17.52;15.88;;;;;;;17.78;100.00;96485.44;5105844;28;20420;-86
2023/07/06 00:32:33;;;;;;;18.42;15.38;;;;;;;17.79;100.00;96499.34;5107880;28;20519;-86
2023/07/06 00:34:59;;;;;;;19.52;15.60;;;;;;;17.83;100.00;96500.63;5106244;28;20040;-87
2023/07/06 00:37:25;;;;;;;20.15;14.95;;;;;;;17.72;100.00;96478.25;5107032;28;20027;-86
2023/07/06 00:39:51;;;;;;;20.45;14.88;;;;;;;17.68;100.00;96487.50;5107283;28;20018;-87
2023/07/06 00:42:18;;;;;;;15.80;14.20;;;;;;;17.70;100.00;96493.38;5105947;28;20141;-86
2023/07/06 00:44:53;;;;;;;18.02;16.10;;;;;;;17.64;100.00;96494.06;5107059;28;20028;-87
2023/07/06 00:47:29;;;;;;;18.95;15.30;;;;;;;17.64;100.00;96503.72;5088747;28;20978;-86
2023/07/06 00:49:56;;;;;;;18.10;15.27;;;;;;;17.70;100.00;96509.09;5108375;28;20098;-87
2023/07/06 00:52:22;;;;;;;15.85;14.40;;;;;;;17.64;100.00;96519.47;5106678;28;20201;-88
2023/07/06 00:54:48;;;;;;;20.35;17.55;;;;;;;17.66;100.00;96518.28;5106277;28;20385;-86
2023/07/06 00:57:15;;;;;;;19.27;14.23;;;;;;;17.56;100.00;96507.25;5107567;28;20031;-88
2023/07/06 00:59:41;;;;;;;17.75;16.00;;;;;;;17.60;100.00;96519.00;5106751;28;20061;-86
2023/07/06 01:02:09;;;;;;;16.80;14.25;;;;;;;17.47;100.00;96510.03;5108633;28;20057;-86
2023/07/06 01:04:35;;;;;;;16.17;13.95;;;;;;;17.41;100.00;96514.19;5105304;28;20028;-87
2023/07/06 01:07:02;;;;;;;18.65;13.85;;;;;;;17.36;100.00;96511.28;5106946;28;20481;-88
2023/07/06 01:09:30;;;;;;;15.00;13.70;;;;;;;17.42;100.00;96520.25;5107568;28;20054;-87
2023/07/06 01:11:57;;;;;;;16.80;14.23;;;;;;;17.37;100.00;96524.19;5089842;28;20110;-87
2023/07/06 01:14:24;;;;;;;14.68;13.13;;;;;;;17.27;100.00;96513.13;5108371;28;20068;-87
2023/07/06 01:16:53;;;;;;;15.43;13.30;;;;;;;17.20;100.00;96514.81;5106801;28;20195;-88
2023/07/06 01:19:28;;;;;;;16.63;14.18;;;;;;;17.26;100.00;96508.06;5107140;28;20432;-86
2023/07/06 01:22:02;;;;;;;20.85;18.70;;;;;;;17.21;100.00;96513.03;5106620;28;20122;-87
2023/07/06 01:24:57;;;;;;;18.00;14.85;;;;;;;17.21;100.00;96518.25;5107076;28;20510;-87
2023/07/06 01:27:36;;;;;;;17.05;14.90;;;;;;;17.16;100.00;96508.28;5108472;28;20108;-86
2023/07/06 01:30:26;;;;;;;14.73;13.23;;;;;;;17.18;100.00;96508.91;5088455;28;20031;-87
2023/07/06 01:32:57;;;;;;;17.25;14.45;;;;;;;17.14;100.00;96512.91;5108391;28;20063;-86
2023/07/06 01:35:57;;;;;;;14.82;13.38;;;;;;;17.08;100.00;96520.63;5089067;28;20351;-87
2023/07/06 01:38:23;;;;;;;13.13;11.77;;;;;;;17.03;100.00;96512.44;5105247;28;20399;-86
2023/07/06 01:40:49;;;;;;;14.55;12.90;;;;;;;17.04;100.00;96516.72;5106800;28;20020;-85
2023/07/06 01:43:15;;;;;;;14.00;12.60;;;;;;;16.96;100.00;96504.47;5088050;28;20043;-85
2023/07/06 01:45:40;;;;;;;16.75;12.38;;;;;;;16.92;100.00;96505.78;5106651;28;20431;-86
2023/07/06 01:48:10;;;;;;;20.42;13.02;;;;;;;16.98;100.00;96504.31;5088206;28;20554;-86
2023/07/06 01:50:48;;;;;;;19.02;13.40;;;;;;;16.87;100.00;96492.41;5089856;28;20032;-86
2023/07/06 01:53:59;;;;;;;17.33;13.13;;;;;;;16.78;100.00;96494.25;5108312;28;20051;-86
2023/07/06 01:57:15;;;;;;;14.77;13.10;;;;;;;16.81;100.00;96500.94;5007071;28;20064;-87
2023/07/06 01:59:46;;;;;;;20.50;14.25;;;;;;;16.68;100.00;96493.66;5024555;28;20756;-87
2023/07/06 02:02:12;;;;;;;16.30;14.35;;;;;;;16.80;100.00;96505.34;5099651;28;20040;-86
2023/07/06 02:04:43;;;;;;;18.98;16.83;;;;;;;16.85;100.00;96495.22;5091317;28;20035;-85
2023/07/06 02:07:10;;;;;;;15.57;13.55;;;;;;;16.68;100.00;96492.81;5110377;28;20104;-86
2023/07/06 02:09:49;;;;;;;22.02;14.52;;;;;;;16.61;100.00;96490.06;5108738;28;20519;-86
2023/07/06 02:12:14;;;;;;;16.27;14.55;;;;;;;16.68;100.00;96490.22;5109911;28;20019;-85
2023/07/06 02:14:43;;;;;;;21.65;12.43;;;;;;;16.63;100.00;96477.63;5110130;28;20035;-86
2023/07/06 02:17:09;;;;;;;21.08;12.15;;;;;;;16.65;100.00;96480.09;5091820;28;20035;-85
2023/07/06 02:19:36;;;;;;;13.73;11.95;;;;;;;16.62;100.00;96475.19;5110228;28;20031;-86
2023/07/06 02:22:03;;;;;;;19.98;14.02;;;;;;;16.57;100.00;96474.88;5109816;28;20027;-88
2023/07/06 02:24:30;;;;;;;17.25;14.55;;;;;;;16.54;100.00;96467.34;5093157;28;20533;-87
2023/07/06 02:26:55;;;;;;;21.23;15.95;;;;;;;16.66;100.00;96479.09;5108287;28;20027;-85
2023/07/06 02:29:22;;;;;;;15.57;14.10;;;;;;;16.67;100.00;96481.53;5110080;28;20043;-86
2023/07/06 02:31:48;;;;;;;14.80;13.13;;;;;;;16.64;100.00;96476.66;5110717;28;20045;-85
2023/07/06 02:34:14;;;;;;;14.57;12.45;;;;;;;16.59;100.00;96465.88;5091690;28;20046;-86
2023/07/06 02:36:40;;;;;;;15.23;13.77;;;;;;;16.55;100.00;96464.59;5109873;28;20038;-87
2023/07/06 02:39:06;;;;;;;15.07;13.45;;;;;;;16.62;100.00;96456.88;5090725;28;20108;-86
2023/07/06 02:41:31;;;;;;;16.85;14.05;;;;;;;16.57;100.00;96460.00;5109657;28;20507;-86
2023/07/06 02:43:58;;;;;;;16.65;11.98;;;;;;;16.55;100.00;96455.94;5107788;28;20023;-86
2023/07/06 02:46:23;;;;;;;18.15;13.82;;;;;;;16.47;100.00;96451.50;5110472;28;20133;-86
2023/07/06 02:48:52;;;;;;;17.17;14.45;;;;;;;16.45;100.00;96455.28;5109899;28;20023;-86
2023/07/06 02:51:18;;;;;;;14.93;12.75;;;;;;;16.54;100.00;96465.53;5110158;28;20405;-86
2023/07/06 02:53:45;;;;;;;14.48;13.02;;;;;;;16.55;100.00;96472.44;5110888;28;20027;-86
2023/07/06 02:56:10;;;;;;;15.13;13.55;;;;;;;16.47;100.00;96456.72;5108875;28;20106;-86
2023/07/06 02:58:36;;;;;;;14.57;13.07;;;;;;;16.37;100.00;96445.69;5092450;28;20111;-86
2023/07/06 03:01:01;;;;;;;17.83;15.65;;;;;;;16.38;100.00;96444.69;5107521;28;20408;-86
2023/07/06 03:03:27;;;;;;;19.42;12.18;;;;;;;16.41;100.00;96443.53;5092301;28;20505;-85
2023/07/06 03:05:53;;;;;;;14.95;12.57;;;;;;;16.46;100.00;96455.13;5107369;28;20051;-85
2023/07/06 03:08:19;;;;;;;18.98;17.15;;;;;;;16.47;100.00;96448.09;5108820;28;20030;-85
2023/07/06 03:10:48;;;;;;;41.70;29.67;;;;;;;16.48;100.00;96452.31;5108731;28;20557;-86
2023/07/06 03:13:15;;;;;;;55.45;40.97;;;;;;;16.44;100.00;96432.75;5107525;28;20030;-85
2023/07/06 03:15:41;;;;;;;37.17;27.60;;;;;;;16.40;100.00;96439.28;5108985;28;20423;-85
2023/07/06 03:18:07;;;;;;;19.88;17.92;;;;;;;16.33;100.00;96437.34;5107574;28;20027;-87
2023/07/06 03:20:36;;;;;;;17.52;14.85;;;;;;;16.41;100.00;96446.16;5110399;28;20544;-86
2023/07/06 03:23:02;;;;;;;16.88;13.00;;;;;;;16.43;100.00;96442.38;5090797;28;20089;-88
2023/07/06 03:25:28;;;;;;;15.05;13.00;;;;;;;16.47;100.00;96445.47;5108564;28;20031;-85
2023/07/06 03:27:54;;;;;;;16.60;12.80;;;;;;;16.54;100.00;96436.75;5108306;28;20080;-85
2023/07/06 03:30:22;;;;;;;12.98;11.68;;;;;;;16.53;100.00;96416.03;5107650;28;20024;-85
2023/07/06 03:32:47;;;;;;;13.77;11.98;;;;;;;16.51;100.00;96407.50;5091712;28;20032;-85
2023/07/06 03:35:13;;;;;;;18.85;12.82;;;;;;;16.56;100.00;96402.63;5107279;28;20655;-83
2023/07/06 03:37:42;;;;;;;19.45;13.45;;;;;;;16.68;100.00;96407.31;5108705;28;20107;-84
2023/07/06 03:40:12;;;;;;;13.93;12.52;;;;;;;16.78;100.00;96399.22;5106746;28;20058;-85
2023/07/06 03:42:45;;;;;;;15.85;14.32;;;;;;;16.81;100.00;96385.78;5108590;28;20385;-84
2023/07/06 03:45:15;;;;;;;15.73;14.30;;;;;;;16.89;100.00;96379.72;5108082;28;20031;-84
2023/07/06 03:47:42;;;;;;;12.57;11.38;;;;;;;16.86;100.00;96367.75;5107219;28;20397;-85
2023/07/06 03:50:09;;;;;;;13.32;10.98;;;;;;;17.13;100.00;96364.63;5108096;28;20027;-84
2023/07/06 03:52:39;;;;;;;16.92;11.20;;;;;;;17.07;100.00;96323.44;5108080;28;20397;-84
2023/07/06 03:55:05;;;;;;;12.48;10.35;;;;;;;17.16;100.00;96288.34;5091753;28;20036;-84
2023/07/06 03:57:31;;;;;;;14.95;12.98;;;;;;;17.26;100.00;96260.09;5108173;28;20024;-84
2023/07/06 03:59:57;;;;;;;14.10;11.27;;;;;;;17.34;100.00;96228.56;5107805;28;20495;-84
2023/07/06 04:02:23;;;;;;;11.80;10.60;;;;;;;17.49;100.00;96218.09;5107689;28;20027;-84
2023/07/06 04:04:48;;;;;;;15.07;11.77;;;;;;;17.64;100.00;96199.75;5108003;28;20496;-84
2023/07/06 04:07:14;;;;;;;13.63;12.40;;;;;;;17.82;100.00;96176.56;5090795;28;20477;-84
2023/07/06 04:09:40;;;;;;;12.25;10.27;;;;;;;17.84;100.00;96164.94;5106219;28;20028;-84
2023/07/06 04:12:07;;;;;;;11.88;10.98;;;;;;;18.30;100.00;96144.38;5090608;28;20019;-84
2023/07/06 04:14:34;;;;;;;8.82;8.13;;;;;;;19.58;100.00;95829.41;5106266;28;20062;-83
2023/07/06 04:16:59;;;;;;;11.88;9.77;;;;;;;19.23;100.00;95521.44;5107795;28;20046;-83
2023/07/06 04:19:25;;;;;;;12.07;8.80;;;;;;;18.91;100.00;95527.66;5107009;28;20480;-83
2023/07/06 04:21:52;;;;;;;12.52;9.60;;;;;;;18.57;100.00;95619.78;5090290;28;20024;-83
2023/07/06 04:24:17;;;;;;;13.88;8.85;;;;;;;18.56;100.00;95710.03;5107622;28;20106;-83
2023/07/06 04:26:46;;;;;;;11.93;10.38;;;;;;;18.44;100.00;95791.91;5105580;28;20122;-83
2023/07/06 04:29:12;;;;;;;;;;;;;;;18.40;100.00;95874.63;5109376;28;20055;-84
2023/07/06 04:31:39;;;;;;;14.02;12.00;;;;;;;18.11;100.00;95922.09;5107377;28;19958;-84
2023/07/06 04:34:05;;;;;;;12.00;10.80;;;;;;;18.35;100.00;95968.88;5090508;28;20047;-84
2023/07/06 04:36:33;;;;;;;17.33;11.93;;;;;;;18.39;100.00;95943.88;5106215;28;20524;-84
2023/07/06 04:38:59;;;;;;;14.65;13.30;;;;;;;18.38;100.00;95923.88;5107225;28;20016;-84
2023/07/06 04:41:25;;;;;;;14.77;12.88;;;;;;;18.51;100.00;95930.22;5106978;28;20020;-84
2023/07/06 04:43:52;;;;;;;14.45;11.93;;;;;;;18.63;100.00;95902.41;5107389;28;20445;-84
2023/07/06 04:46:20;;;;;;;14.00;12.60;;;;;;;18.70;100.00;95856.81;5107195;28;20050;-84
2023/07/06 04:48:46;;;;;;;12.63;10.95;;;;;;;18.91;100.00;95816.47;5105836;28;20027;-83
2023/07/06 04:51:12;;;;;;;15.27;11.10;;;;;;;18.95;100.00;95744.94;5107395;28;20038;-84
2023/07/06 04:53:38;;;;;;;15.65;11.75;;;;;;;18.97;100.00;95733.44;5106060;28;20504;-85
2023/07/06 04:56:04;;;;;;;13.57;12.30;;;;;;;19.38;100.00;95718.22;5106765;28;20043;-84
2023/07/06 04:58:30;;;;;;;10.45;8.68;;;;;;;22.12;100.00;95216.81;5106998;28;20606;-85
2023/07/06 05:00:56;;;;;;;11.27;6.43;;;;;;;22.29;100.00;94863.94;5089060;28;20115;-84
2023/07/06 05:03:23;;;;;;;7.18;6.47;;;;;;;23.21;100.00;94813.72;5108342;28;20107;-84
2023/07/06 05:05:49;;;;;;;8.05;7.45;;;;;;;21.43;100.00;94865.34;5105216;28;20516;-84
2023/07/06 05:08:19;;;;;;;7.53;6.65;;;;;;;21.10;100.00;94966.22;5090095;28;20024;-85
2023/07/06 05:10:47;;;;;;;9.52;8.77;;;;;;;20.83;100.00;95070.50;5105406;28;20428;-85
2023/07/06 05:13:13;;;;;;;9.68;8.80;;;;;;;20.91;100.00;95126.25;5107043;28;20032;-85
2023/07/06 05:15:39;;;;;;;8.65;7.85;;;;;;;23.22;100.00;94905.16;5089266;28;20035;-85
2023/07/06 05:18:06;;;;;;;6.88;6.13;;;;;;;23.51;100.00;94806.81;5072074;28;20031;-85
2023/07/06 05:20:32;;;;;;;6.78;6.35;;;;;;;23.89;100.00;94773.97;5108511;28;20032;-85
2023/07/06 05:22:58;;;;;;;7.80;7.05;;;;;;;23.08;100.00;94813.09;5105808;28;20054;-84
2023/07/06 05:25:23;;;;;;;6.25;5.65;;;;;;;24.36;100.00;94744.00;5107077;28;20439;-86
2023/07/06 05:27:49;;;;;;;6.88;6.38;;;;;;;25.20;100.00;94687.88;5105269;28;20069;-85
2023/07/06 05:30:15;;;;;;;7.05;5.00;;;;;;;26.97;100.00;94664.69;5106964;28;20488;-86
2023/07/06 05:32:41;;;;;;;5.82;5.25;;;;;;;27.40;100.00;94654.97;5105935;28;20024;-86
2023/07/06 05:35:07;;;;;;;5.45;4.97;;;;;;;28.16;100.00;94656.75;5106209;28;20038;-85
2023/07/06 05:37:33;;;;;;;6.35;5.55;;;;;;;28.39;100.00;94652.44;5108421;28;20031;-85
2023/07/06 05:40:01;;;;;;;6.28;5.78;;;;;;;29.14;93.05;94655.78;5092274;28;20020;-86
2023/07/06 05:42:26;;;;;;;6.40;5.88;;;;;;;27.82;100.00;94656.91;5110693;28;20088;-87
2023/07/06 05:44:52;;;;;;;7.85;7.13;;;;;;;27.50;100.00;94657.56;5109181;28;20023;-86
2023/07/06 05:47:18;;;;;;;8.35;7.40;;;;;;;30.65;82.84;94652.75;5111108;28;20795;-87
2023/07/06 05:49:43;;;;;;;8.30;7.55;;;;;;;32.68;70.89;94662.25;5109434;28;20027;-88
2023/07/06 05:52:08;;;;;;;9.68;5.88;;;;;;;32.60;70.20;94665.72;5093545;28;20027;-88
2023/07/06 05:54:34;;;;;;;5.95;5.45;;;;;;;31.06;80.47;94665.16;5093381;28;20472;-88
2023/07/06 05:57:02;;;;;;;7.00;6.50;;;;;;;28.16;96.53;94670.06;5092811;28;20031;-88
2023/07/06 05:59:29;;;;;;;7.93;6.45;;;;;;;29.29;100.00;94666.22;5111065;28;20084;-88
2023/07/06 06:01:56;;;;;;;6.57;6.00;;;;;;;31.43;80.90;94664.75;5110834;27;20026;-88
2023/07/06 06:04:21;;;;;;;7.30;6.55;;;;;;;31.92;69.69;94655.63;5111229;28;20023;-88
2023/07/06 06:06:53;;;;;;;7.10;6.70;;;;;;;32.70;68.32;94665.38;5109200;28;20047;-89
2023/07/06 06:09:20;;;;;;;6.35;5.90;;;;;;;33.68;63.83;94670.75;5093953;28;20412;-90
2023/07/06 06:11:48;;;;;;;;;;;;;;;34.11;59.51;94673.25;5110887;28;20031;-90
2023/07/06 06:14:15;;;;;;;8.10;5.25;;;;;;;34.53;59.71;94670.59;5109558;28;19907;-89
2023/07/06 06:16:40;;;;;;;5.40;4.90;;;;;;;34.83;58.85;94675.63;5110910;28;20630;-88
2023/07/06 06:19:07;;;;;;;6.60;6.10;;;;;;;34.82;58.82;94667.84;5092034;28;20032;-88
2023/07/06 06:21:33;;;;;;;5.70;5.30;;;;;;;34.62;60.19;94674.81;5111940;28;20020;-88
2023/07/06 06:23:59;;;;;;;8.13;6.00;;;;;;;34.04;61.27;94670.25;5091771;28;20481;-89
2023/07/06 06:26:25;;;;;;;6.90;6.15;;;;;;;35.10;58.11;94679.66;5093497;28;20023;-88
2023/07/06 06:28:51;;;;;;;7.30;6.78;;;;;;;33.95;59.38;94666.81;5109751;28;20027;-87
2023/07/06 06:31:16;;;;;;;8.02;7.32;;;;;;;34.08;61.01;94660.41;5109598;28;20544;-88
2023/07/06 06:33:44;;;;;;;7.10;6.55;;;;;;;30.83;78.53;94662.47;5112039;28;20216;-88
2023/07/06 06:36:10;;;;;;;8.60;7.90;;;;;;;29.58;85.66;94658.72;5110029;27;20172;-87
2023/07/06 06:38:36;;;;;;;9.68;7.82;;;;;;;29.47;85.80;94653.88;5111454;28;20537;-87
2023/07/06 06:41:07;;;;;;;8.70;7.10;;;;;;;29.68;92.83;94658.53;5108562;28;20016;-88
2023/07/06 06:43:38;;;;;;;7.50;6.95;;;;;;;29.55;89.31;94658.53;5093494;28;20031;-89
2023/07/06 06:46:08;;;;;;;7.10;6.60;;;;;;;30.98;84.12;94657.88;5109286;28;20477;-86
2023/07/06 06:48:33;;;;;;;7.22;6.63;;;;;;;34.13;64.28;94649.50;5108960;28;20405;-88
2023/07/06 06:51:00;;;;;;;7.57;6.47;;;;;;;30.52;79.07;94652.78;5093346;28;20076;-87
2023/07/06 06:53:26;;;;;;;6.82;6.28;;;;;;;29.81;83.57;94659.59;5108352;28;20106;-86
2023/07/06 06:55:52;;;;;;;8.02;6.18;;;;;;;30.59;78.54;94653.16;5110249;28;20626;-87
2023/07/06 06:58:20;;;;;;;7.57;6.80;;;;;;;29.76;91.72;94649.81;5107937;28;20034;-87
2023/07/06 07:01:20;;;;;;;7.75;6.75;;;;;;;29.86;86.22;94658.75;5110136;28;20027;-88
2023/07/06 07:03:45;;;;;;;8.60;6.43;;;;;;;30.04;91.53;94652.50;5110795;28;20039;-90
2023/07/06 07:06:13;;;;;;;6.50;6.10;;;;;;;29.93;91.33;94653.78;5108640;28;20465;-90
2023/07/06 07:08:49;;;;;;;6.18;5.72;;;;;;;30.10;87.49;94654.75;5110939;28;20055;-90
2023/07/06 07:11:19;;;;;;;7.43;6.72;;;;;;;29.97;86.87;94658.25;5108233;28;20023;-87
2023/07/06 07:13:44;;;;;;;7.38;6.85;;;;;;;32.65;75.88;94651.34;5109667;28;20027;-88
2023/07/06 07:16:11;;;;;;;7.97;7.20;;;;;;;32.84;73.98;94652.59;5108311;28;20093;-89
2023/07/06 07:18:38;;;;;;;7.05;6.50;;;;;;;29.96;89.58;94648.63;5431951;22;20057;-90
2023/07/06 07:21:04;;;;;;;7.13;6.43;;;;;;;29.19;97.20;94651.16;5031008;28;20029;-88
2023/07/06 07:23:35;;;;;;;6.15;5.65;;;;;;;29.28;93.93;94641.41;5049497;28;20429;-89
2023/07/06 07:26:03;;;;;;;7.68;6.97;;;;;;;28.98;97.92;94657.13;5049109;28;20611;-91
2023/07/06 07:28:29;;;;;;;8.35;7.65;;;;;;;29.15;100.00;94647.50;5032747;28;20183;-88
2023/07/06 07:30:59;;;;;;;8.75;7.85;;;;;;;28.42;95.96;94652.66;5049847;28;20108;-89
2023/07/06 07:33:27;;;;;;;7.97;7.15;;;;;;;27.98;97.06;94642.31;5030693;28;20103;-87
2023/07/06 07:35:52;;;;;;;8.13;7.40;;;;;;;27.95;100.00;94648.22;5032636;28;20021;-90
2023/07/06 07:38:19;;;;;;;9.40;8.32;;;;;;;28.39;100.00;94641.78;5048342;28;20032;-88
2023/07/06 07:40:56;;;;;;;10.68;8.60;;;;;;;28.51;100.00;94650.13;5048929;28;20029;-92
2023/07/06 07:43:26;;;;;;;9.02;8.25;;;;;;;28.84;100.00;94640.28;5047018;28;20055;-81
2023/07/06 07:46:01;;;;;;;7.68;7.07;;;;;;;28.57;100.00;94643.66;5031918;28;20025;-87
2023/07/06 07:48:27;;;;;;;8.82;7.72;;;;;;;28.58;100.00;94640.66;5047967;28;20116;-84
2023/07/06 07:50:58;;;;;;;9.85;6.88;;;;;;;28.90;100.00;94644.47;5047043;28;20032;-88
2023/07/06 07:53:25;;;;;;;11.75;7.78;;;;;;;29.18;100.00;94648.78;5048496;28;20474;-87
2023/07/06 07:55:53;;;;;;;8.80;7.97;;;;;;;28.67;100.00;94646.94;5030161;28;20032;-87
2023/07/06 07:58:19;;;;;;;10.02;7.70;;;;;;;28.36;100.00;94637.81;5048130;28;20086;-89
2023/07/06 08:00:49;;;;;;;8.57;7.40;;;;;;;28.41;99.57;94635.09;5046314;28;20277;-85
2023/07/06 08:03:14;;;;;;;7.25;6.47;;;;;;;28.63;100.00;94639.81;5047648;28;20051;-86
2023/07/06 08:05:41;;;;;;;13.25;6.93;;;;;;;28.39;100.00;94639.91;5048869;28;20482;-88
2023/07/06 08:08:07;;;;;;;8.63;7.85;;;;;;;27.75;100.00;94641.28;5048104;28;20017;-86
2023/07/06 08:10:37;;;;;;;7.85;7.20;;;;;;;28.89;100.00;94651.69;5047750;28;20119;-89
2023/07/06 08:13:07;;;;;;;7.32;6.82;;;;;;;29.10;100.00;94647.56;5046325;28;20078;-85
2023/07/06 08:15:33;;;;;;;7.95;7.35;;;;;;;29.20;100.00;94644.72;5048988;28;20060;-88
2023/07/06 08:18:00;;;;;;;8.40;7.43;;;;;;;28.56;100.00;94642.84;5049701;28;20469;-84
2023/07/06 08:20:29;;;;;;;9.80;7.20;;;;;;;28.89;100.00;94646.34;5067709;28;20067;-88
2023/07/06 08:22:59;;;;;;;7.63;6.78;;;;;;;28.91;100.00;94644.16;5067274;28;20028;-86
2023/07/06 08:25:28;;;;;;;7.05;6.55;;;;;;;29.24;100.00;94645.75;5050044;28;20086;-88
2023/07/06 08:27:57;;;;;;;8.18;7.35;;;;;;;28.96;100.00;94633.41;5067715;28;20513;-85
2023/07/06 08:30:23;;;;;;;6.95;6.30;;;;;;;28.99;100.00;94632.03;5065667;28;20409;-79
2023/07/06 08:32:49;;;;;;;8.02;6.82;;;;;;;28.91;100.00;94638.03;5068815;28;20021;-83
2023/07/06 08:35:18;;;;;;;8.18;7.35;;;;;;;28.51;99.67;94623.47;5065890;28;20107;-86
2023/07/06 08:37:44;;;;;;;7.95;7.05;;;;;;;28.74;100.00;94634.03;5067400;28;20088;-87
2023/07/06 08:40:17;;;;;;;7.25;6.65;;;;;;;29.01;100.00;94632.53;5050345;28;20619;-86
2023/07/06 08:42:45;;;;;;;9.73;6.60;;;;;;;28.42;100.00;94625.19;5049287;28;20025;-85
2023/07/06 08:45:20;;;;;;;9.52;7.10;;;;;;;28.19;98.99;94622.34;5067286;28;20099;-86
2023/07/06 08:47:46;;;;;;;7.45;6.80;;;;;;;28.81;100.00;94623.00;5065669;28;20551;-85
2023/07/06 08:50:15;;;;;;;7.35;6.80;;;;;;;28.51;99.50;94624.25;5067465;28;20113;-86
2023/07/06 08:52:41;;;;;;;9.15;6.05;;;;;;;28.52;99.44;94615.19;5066770;28;20512;-86
2023/07/06 08:55:15;;;;;;;7.10;6.03;;;;;;;28.87;100.00;94626.38;5066691;28;20334;-85
2023/07/06 08:57:40;;;;;;;6.78;6.30;;;;;;;29.04;100.00;94621.28;5067179;28;20035;-90
2023/07/06 09:00:27;;;;;;;7.57;6.97;;;;;;;28.77;95.96;94622.78;5065865;28;20021;-87
2023/07/06 09:02:55;;;;;;;7.63;6.80;;;;;;;28.47;100.00;94627.81;5068087;28;20024;-84
2023/07/06 09:05:21;;;;;;;7.50;6.90;;;;;;;28.67;100.00;94625.63;5065389;28;20021;-85
2023/07/06 09:07:48;;;;;;;7.80;7.20;;;;;;;28.39;100.00;94623.91;5066676;28;20025;-86
2023/07/06 09:10:25;;;;;;;7.18;6.57;;;;;;;27.91;100.00;94617.13;5065916;28;20039;-84
2023/07/06 09:12:53;;;;;;;8.07;6.38;;;;;;;28.87;100.00;94626.38;5069305;28;20024;-85
2023/07/06 09:15:24;;;;;;;7.00;6.50;;;;;;;28.53;99.97;94624.78;5071066;28;20057;-84
2023/07/06 09:17:50;;;;;;;7.28;6.53;;;;;;;28.59;100.00;94622.81;5068714;28;20043;-85
2023/07/06 09:20:18;;;;;;;7.03;6.43;;;;;;;29.07;100.00;94626.81;5071039;28;20054;-85
2023/07/06 09:22:45;;;;;;;6.65;6.07;;;;;;;29.31;100.00;94626.69;5052161;28;20400;-85
2023/07/06 09:25:17;;;;;;;7.50;6.75;;;;;;;29.19;100.00;94626.31;5072425;28;20033;-82
2023/07/06 09:27:55;;;;;;;7.20;6.53;;;;;;;29.40;100.00;94627.56;5070346;28;20056;-83
2023/07/06 09:30:29;;;;;;;7.07;6.40;;;;;;;29.31;98.18;94616.00;5069541;28;20122;-84
2023/07/06 09:33:04;;;;;;;10.68;7.00;;;;;;;29.28;96.82;94620.03;5070699;28;20520;-86
2023/07/06 09:35:29;;;;;;;7.43;6.72;;;;;;;29.60;93.61;94624.53;5069018;28;20028;-87
2023/07/06 09:37:55;;;;;;;6.53;6.03;;;;;;;29.18;93.89;94619.44;5070310;28;20035;-88
2023/07/06 09:40:28;;;;;;;8.35;6.35;;;;;;;29.41;91.08;94625.69;5070727;28;20417;-86
2023/07/06 09:42:53;;;;;;;7.47;6.88;;;;;;;28.35;94.81;94624.78;5069576;28;20021;-84
2023/07/06 09:45:27;;;;;;;6.75;6.15;;;;;;;27.76;90.12;94618.13;5071453;28;20035;-84
2023/07/06 09:47:56;;;;;;;6.20;5.63;;;;;;;28.66;92.12;94613.38;5051722;28;20020;-85
2023/07/06 09:50:35;;;;;;;7.05;6.45;;;;;;;28.56;87.88;94607.38;5070308;28;20401;-84
2023/07/06 09:53:05;;;;;;;6.57;6.07;;;;;;;29.20;85.53;94609.25;5068346;28;20037;-83
2023/07/06 09:55:30;;;;;;;7.40;6.80;;;;;;;29.11;87.06;94600.34;5070138;28;20425;-82
2023/07/06 09:57:57;;;;;;;12.63;6.20;;;;;;;29.12;82.05;94617.94;5069080;28;20035;-84
2023/07/06 10:00:29;;;;;;;6.80;6.28;;;;;;;29.08;86.53;94607.06;5069104;28;20029;-84
2023/07/06 10:02:57;;;;;;;7.55;6.97;;;;;;;29.41;93.56;94602.44;5070024;28;20112;-85
2023/07/06 10:05:46;;;;;;;6.97;6.43;;;;;;;29.88;96.13;94595.13;5070086;28;20036;-91
2023/07/06 10:08:15;;;;;;;7.43;6.82;;;;;;;29.55;90.36;94597.09;5069775;28;20036;-81
2023/07/06 10:10:50;;;;;;;11.57;7.75;;;;;;;29.17;93.56;94591.16;5068806;28;20024;-82
2023/07/06 10:13:26;;;;;;;7.03;6.63;;;;;;;29.46;97.90;94591.69;5070572;28;20039;-81
2023/07/06 10:16:43;;;;;;;7.75;7.15;;;;;;;28.69;99.08;94591.47;5069508;28;20024;-83
2023/07/06 10:19:25;;;;;;;7.40;6.80;;;;;;;28.63;100.00;94583.81;5064243;28;20072;-85
2023/07/06 10:22:15;;;;;;;6.97;6.35;;;;;;;29.02;96.58;94584.22;5070709;28;20103;-85
2023/07/06 10:24:56;;;;;;;6.10;5.68;;;;;;;28.58;100.00;94581.22;5069054;28;20037;-82
2023/07/06 10:27:26;;;;;;;5.40;5.03;;;;;;;28.61;95.43;94585.97;5068015;28;20405;-83
2023/07/06 10:29:54;;;;;;;6.03;5.53;;;;;;;29.02;96.59;94581.56;5070958;28;20406;-87
2023/07/06 10:32:42;;;;;;;5.10;4.72;;;;;;;29.55;93.23;94581.88;5068407;28;20028;-85
2023/07/06 10:35:21;;;;;;;5.47;5.07;;;;;;;29.78;88.61;94582.75;5068015;28;20489;-86
2023/07/06 10:37:47;;;;;;;5.57;5.15;;;;;;;29.66;90.13;94572.59;5069733;28;20036;-84
2023/07/06 10:40:20;;;;;;;6.28;5.30;;;;;;;29.65;91.52;94578.22;5067770;28;20025;-85
2023/07/06 10:42:51;;;;;;;5.70;5.20;;;;;;;29.81;92.96;94587.47;5070694;28;20393;-84
2023/07/06 10:45:23;;;;;;;6.43;5.55;;;;;;;29.61;83.51;94578.00;5067829;28;20067;-83
2023/07/06 10:47:50;;;;;;;6.00;5.25;;;;;;;29.29;91.33;94570.91;5068810;28;20058;-82
2023/07/06 10:50:23;;;;;;;5.65;5.13;;;;;;;28.77;87.85;94577.44;5068954;28;20382;-78
2023/07/06 10:53:18;;;;;;;5.97;5.38;;;;;;;28.48;92.46;94582.19;5068916;28;20378;-82
2023/07/06 10:55:58;;;;;;;6.65;5.65;;;;;;;28.21;93.32;94576.75;5068951;28;20028;-83
2023/07/06 10:58:24;;;;;;;5.70;5.32;;;;;;;28.36;90.56;94583.72;5069105;28;20562;-84
2023/07/06 11:00:52;;;;;;;5.68;5.13;;;;;;;28.38;97.19;94584.22;5069674;28;20131;-85
2023/07/06 11:03:24;;;;;;;6.10;5.70;;;;;;;28.49;91.66;94588.31;5068626;28;20028;-84
2023/07/06 11:06:05;;;;;;;5.97;5.25;;;;;;;28.47;92.13;94593.94;5067325;28;20128;-83
2023/07/06 11:09:09;;;;;;;6.57;5.57;;;;;;;28.04;92.75;94587.09;5070250;28;20111;-84
2023/07/06 11:11:39;;;;;;;6.15;5.65;;;;;;;28.35;96.09;94585.63;5068398;28;20024;-85
2023/07/06 11:14:30;;;;;;;8.45;5.55;;;;;;;28.47;100.00;94575.28;5067624;28;20117;-86
2023/07/06 11:17:03;;;;;;;6.10;5.57;;;;;;;28.19;100.00;94562.94;5070012;28;20048;-86
2023/07/06 11:19:36;;;;;;;5.65;5.25;;;;;;;27.90;100.00;94578.25;5066578;28;20040;-86
2023/07/06 11:22:05;;;;;;;5.95;5.45;;;;;;;27.47;100.00;94578.28;5068501;28;20497;-85
2023/07/06 11:24:36;;;;;;;9.07;6.20;;;;;;;27.33;100.00;94585.34;5067675;28;20496;-85
2023/07/06 11:27:10;;;;;;;6.75;6.25;;;;;;;26.78;100.00;94596.53;5067460;28;20029;-86
2023/07/06 11:29:36;;;;;;;5.65;5.25;;;;;;;25.89;100.00;94616.28;5068841;28;20433;-81
2023/07/06 11:32:21;;;;;;;7.20;5.82;;;;;;;25.04;100.00;94618.97;5068064;28;20016;-88